LSZS/SMV METAR and TAF weather

Enter ICAO airport designator
Station Type Date Time Source
LSZS METAR 2019/08/23 18:20 UTC NOAA

LSZS 231820Z AUTO 14002KT 5000 -RA OVC060 12/12 Q1029


Station Type Date Time Source
LSZS Decoded METAR 2019/08/23 18:20 UTC NOAA

Station name not available
Aug 23, 2019 - 02:20 PM EDT / 2019.08.23 1820 UTC
Wind: from the SE (140 degrees) at 2 MPH (2 KT):0
Visibility: 3 mile(s):0
Sky conditions: overcast
Weather: light rain
Temperature: 53 F (12 C)
Dew Point: 53 F (12 C)
Relative Humidity: 100%
Pressure (altimeter): 30.39 in. Hg (1029 hPa)
ob: LSZS 231820Z AUTO 14002KT 5000 -RA OVC060 12/12 Q1029
cycle: 18

Station Type Date Time Source
LSZS TAF 2014/12/22 20:03 UTC NOAA

TAF
AMD LSZS 222054Z 2220/2224 CNL

Example: see airport list